Time,TemperatureF,DewpointF,PressureIn,WindDirection,WindDirectionDegrees,WindSpeedMPH,WindSpeedGustMPH,Humidity,HourlyPrecipIn,Conditions,Clouds,dailyrainin,SolarRadiationWatts/m^2,SoftwareType,DateUTC
2013-03-30 00:05:00,54.7,50.9,30.07,WNW,298,0.0,4.0,87,0.00,,,0.00,0.0,meteohub,2013-03-30 07:05:00,
2013-03-30 00:12:00,54.7,50.9,30.07,WNW,298,0.0,1.0,87,0.00,,,0.00,0.0,meteohub,2013-03-30 07:12:00,
2013-03-30 00:17:00,54.3,50.5,30.07,WNW,298,0.0,1.0,87,0.00,,,0.00,0.0,meteohub,2013-03-30 07:17:00,
2013-03-30 00:22:00,54.3,50.9,30.08,WNW,298,0.0,0.0,88,0.00,,,0.00,0.0,meteohub,2013-03-30 07:22:00,
2013-03-30 00:27:00,54.0,50.5,30.08,WNW,298,0.0,0.0,88,0.00,,,0.00,0.0,meteohub,2013-03-30 07:27:00,
2013-03-30 00:32:00,54.0,50.5,30.07,WNW,298,0.0,0.0,88,0.00,,,0.00,0.0,meteohub,2013-03-30 07:32:00,
2013-03-30 00:37:00,54.0,50.7,30.07,WNW,298,0.0,2.0,89,0.00,,,0.00,0.0,meteohub,2013-03-30 07:37:00,
2013-03-30 00:42:00,53.8,50.5,30.07,WNW,298,0.0,2.0,89,0.00,,,0.00,0.0,meteohub,2013-03-30 07:42:00,
2013-03-30 00:47:00,53.8,50.4,30.07,WNW,298,2.0,2.0,88,0.00,,,0.00,0.0,meteohub,2013-03-30 07:47:00,
2013-03-30 00:52:00,53.6,50.2,30.08,WSW,257,1.0,2.0,88,0.00,,,0.00,0.0,meteohub,2013-03-30 07:52:00,
2013-03-30 00:57:00,53.4,50.2,30.08,SW,226,0.0,5.0,89,0.00,,,0.00,0.0,meteohub,2013-03-30 07:57:00,
2013-03-30 01:02:00,53.4,50.2,30.07,SW,226,0.0,5.0,89,0.00,,,0.00,0.0,meteohub,2013-03-30 08:02:00,
2013-03-30 01:07:00,53.4,50.2,30.06,SW,226,0.0,5.0,89,0.00,,,0.00,0.0,meteohub,2013-03-30 08:07:00,
2013-03-30 01:12:00,53.4,50.2,30.06,SW,226,0.0,5.0,89,0.00,,,0.00,0.0,meteohub,2013-03-30 08:12:00,
2013-03-30 01:17:00,53.2,50.0,30.06,SW,226,0.0,2.0,89,0.00,,,0.00,0.0,meteohub,2013-03-30 08:17:00,
2013-03-30 01:22:00,53.1,49.8,30.06,SW,226,0.0,2.0,89,0.00,,,0.00,0.0,meteohub,2013-03-30 08:22:00,
2013-03-30 01:27:00,53.1,49.8,30.07,SW,225,2.0,5.0,89,0.00,,,0.00,0.0,meteohub,2013-03-30 08:27:00,
2013-03-30 01:32:00,53.2,50.0,30.07,WSW,237,0.0,5.0,89,0.00,,,0.00,0.0,meteohub,2013-03-30 08:32:00,
2013-03-30 01:37:00,53.2,50.0,30.07,NNE,16,2.0,5.0,89,0.00,,,0.00,0.0,meteohub,2013-03-30 08:37:00,
2013-03-30 01:43:00,53.4,50.0,30.08,North,355,1.0,6.0,88,0.00,,,0.00,0.0,meteohub,2013-03-30 08:43:00,
2013-03-30 01:49:00,53.4,50.0,30.08,North,355,0.0,5.0,88,0.00,,,0.00,0.0,meteohub,2013-03-30 08:49:00,
2013-03-30 01:56:00,53.4,50.0,30.07,North,355,1.0,5.0,88,0.00,,,0.00,0.0,meteohub,2013-03-30 08:56:00,
2013-03-30 02:02:00,53.2,49.8,30.07,North,355,0.0,3.0,88,0.00,,,0.00,0.0,meteohub,2013-03-30 09:02:00,
2013-03-30 02:07:00,53.2,49.8,30.07,North,355,2.0,3.0,88,0.00,,,0.00,0.0,meteohub,2013-03-30 09:07:00,
2013-03-30 02:12:00,53.1,49.6,30.07,SW,221,0.0,5.0,88,0.00,,,0.00,0.0,meteohub,2013-03-30 09:12:00,
2013-03-30 02:17:00,53.1,49.6,30.07,SW,221,0.0,5.0,88,0.00,,,0.00,0.0,meteohub,2013-03-30 09:17:00,
2013-03-30 02:22:00,53.1,49.6,30.06,SW,221,0.0,5.0,88,0.00,,,0.00,0.0,meteohub,2013-03-30 09:22:00,
2013-03-30 02:27:00,53.1,49.6,30.06,SW,222,4.0,5.0,88,0.00,,,0.00,0.0,meteohub,2013-03-30 09:27:00,
2013-03-30 02:32:00,53.1,49.6,30.06,SW,222,0.0,5.0,88,0.00,,,0.00,0.0,meteohub,2013-03-30 09:32:00,
2013-03-30 02:37:00,53.1,49.6,30.07,SW,222,1.0,5.0,88,0.00,,,0.00,0.0,meteohub,2013-03-30 09:37:00,
2013-03-30 02:42:00,52.9,49.5,30.07,SW,222,0.0,5.0,88,0.00,,,0.00,0.0,meteohub,2013-03-30 09:42:00,
2013-03-30 02:45:00,52.9,49.6,30.07,SW,222,0.0,5.0,89,0.00,,,0.00,0.0,meteohub,2013-03-30 09:45:00,
2013-03-30 02:51:00,52.9,49.6,30.06,SW,222,0.0,4.0,89,0.00,,,0.00,0.0,meteohub,2013-03-30 09:51:00,
2013-03-30 02:57:00,52.9,49.6,30.06,SW,222,0.0,4.0,89,0.00,,,0.00,0.0,meteohub,2013-03-30 09:57:00,
2013-03-30 03:02:00,52.7,49.5,30.06,SW,222,0.0,1.0,89,0.00,,,0.00,0.0,meteohub,2013-03-30 10:02:00,
2013-03-30 03:07:00,52.5,49.5,30.06,SW,222,0.0,1.0,89,0.00,,,0.00,0.0,meteohub,2013-03-30 10:07:00,
2013-03-30 03:12:00,52.5,49.5,30.06,SW,222,0.0,3.0,89,0.00,,,0.00,0.0,meteohub,2013-03-30 10:12:00,
2013-03-30 03:18:00,52.3,49.5,30.06,SW,222,0.0,3.0,90,0.00,,,0.00,0.0,meteohub,2013-03-30 10:18:00,
2013-03-30 03:24:00,52.3,49.5,30.06,SW,222,0.0,4.0,90,0.00,,,0.00,0.0,meteohub,2013-03-30 10:24:00,
2013-03-30 03:31:00,52.3,49.5,30.05,SW,222,0.0,2.0,90,0.00,,,0.00,0.0,meteohub,2013-03-30 10:31:00,
2013-03-30 03:37:00,52.3,49.5,30.05,SW,222,1.0,2.0,90,0.00,,,0.00,0.0,meteohub,2013-03-30 10:37:00,
2013-03-30 03:43:00,52.2,49.3,30.05,SW,222,0.0,0.0,90,0.00,,,0.00,0.0,meteohub,2013-03-30 10:43:00,
2013-03-30 03:49:00,52.2,49.3,30.05,SW,222,0.0,2.0,90,0.00,,,0.00,0.0,meteohub,2013-03-30 10:49:00,
2013-03-30 03:56:00,52.2,49.3,30.05,SW,222,0.0,2.0,90,0.00,,,0.00,0.0,meteohub,2013-03-30 10:56:00,
2013-03-30 04:02:00,52.2,49.6,30.05,SW,222,0.0,3.0,91,0.00,,,0.00,0.0,meteohub,2013-03-30 11:02:00,
2013-03-30 04:07:00,52.2,49.6,30.04,SW,222,0.0,3.0,91,0.00,,,0.00,0.0,meteohub,2013-03-30 11:07:00,
2013-03-30 04:12:00,52.2,49.6,30.05,SW,222,0.0,2.0,91,0.00,,,0.00,0.0,meteohub,2013-03-30 11:12:00,
2013-03-30 04:17:00,52.2,49.6,30.04,SW,222,0.0,2.0,91,0.00,,,0.00,0.0,meteohub,2013-03-30 11:17:00,
2013-03-30 04:22:00,52.2,49.6,30.04,SW,222,0.0,0.0,91,0.00,,,0.00,0.0,meteohub,2013-03-30 11:22:00,
2013-03-30 04:27:00,52.0,49.5,30.04,SW,222,0.0,0.0,91,0.00,,,0.00,0.0,meteohub,2013-03-30 11:27:00,
2013-03-30 04:33:00,52.0,49.5,30.04,SW,222,0.0,1.0,91,0.00,,,0.00,0.0,meteohub,2013-03-30 11:33:00,
2013-03-30 04:39:00,52.0,49.5,30.04,SW,222,0.0,0.0,91,0.00,,,0.00,0.0,meteohub,2013-03-30 11:39:00,
2013-03-30 04:45:00,52.0,49.5,30.04,SW,222,0.0,0.0,91,0.00,,,0.00,0.0,meteohub,2013-03-30 11:45:00,
2013-03-30 04:51:00,52.0,49.5,30.03,SW,222,0.0,0.0,91,0.00,,,0.00,0.0,meteohub,2013-03-30 11:51:00,
2013-03-30 04:57:00,51.8,49.3,30.03,SW,222,0.0,0.0,91,0.00,,,0.00,0.0,meteohub,2013-03-30 11:57:00,
2013-03-30 05:04:00,51.6,49.1,30.03,SW,222,0.0,0.0,91,0.00,,,0.00,0.0,meteohub,2013-03-30 12:04:00,
2013-03-30 05:10:00,51.6,49.5,30.03,SW,222,0.0,0.0,92,0.00,,,0.00,0.0,meteohub,2013-03-30 12:10:00,
2013-03-30 05:17:00,51.6,49.5,30.03,SW,222,0.0,0.0,92,0.00,,,0.00,0.0,meteohub,2013-03-30 12:17:00,
2013-03-30 05:22:00,51.6,49.5,30.03,SW,222,0.0,0.0,92,0.00,,,0.00,0.0,meteohub,2013-03-30 12:22:00,
2013-03-30 05:27:00,51.6,49.5,30.03,SW,222,0.0,0.0,92,0.00,,,0.00,0.0,meteohub,2013-03-30 12:27:00,
2013-03-30 05:33:00,51.6,49.5,30.03,SW,222,0.0,0.0,92,0.00,,,0.00,0.0,meteohub,2013-03-30 12:33:00,
2013-03-30 05:39:00,51.4,49.3,30.03,SW,222,0.0,0.0,92,0.00,,,0.00,0.0,meteohub,2013-03-30 12:39:00,
2013-03-30 05:46:00,51.4,49.3,30.03,SW,222,0.0,0.0,92,0.00,,,0.00,0.0,meteohub,2013-03-30 12:46:00,
2013-03-30 05:52:00,51.4,49.3,30.03,SW,222,0.0,0.0,92,0.00,,,0.00,0.0,meteohub,2013-03-30 12:52:00,
2013-03-30 05:57:00,51.3,49.1,30.03,SW,222,0.0,0.0,92,0.00,,,0.00,0.0,meteohub,2013-03-30 12:57:00,
2013-03-30 06:02:00,51.3,49.1,30.03,SW,222,0.0,0.0,92,0.00,,,0.00,0.0,meteohub,2013-03-30 13:02:00,
2013-03-30 06:07:00,51.3,49.3,30.04,SW,222,0.0,0.0,93,0.00,,,0.00,0.0,meteohub,2013-03-30 13:07:00,
2013-03-30 06:12:00,51.1,49.1,30.04,SW,222,1.0,0.0,93,0.00,,,0.00,0.0,meteohub,2013-03-30 13:12:00,
2013-03-30 06:17:00,51.1,49.1,30.04,SW,222,0.0,0.0,93,0.00,,,0.00,0.0,meteohub,2013-03-30 13:17:00,
2013-03-30 06:22:00,51.3,49.3,30.04,SW,222,0.0,0.0,93,0.00,,,0.00,0.0,meteohub,2013-03-30 13:22:00,
2013-03-30 06:27:00,51.3,49.3,30.04,SW,222,0.0,4.0,93,0.00,,,0.00,0.0,meteohub,2013-03-30 13:27:00,
2013-03-30 06:32:00,51.1,49.1,30.04,SW,222,0.0,4.0,93,0.00,,,0.00,0.0,meteohub,2013-03-30 13:32:00,
2013-03-30 06:37:00,51.1,48.9,30.05,SW,223,0.0,4.0,92,0.00,,,0.00,0.0,meteohub,2013-03-30 13:37:00,
2013-03-30 06:42:00,51.1,49.1,30.05,SW,222,0.0,4.0,93,0.00,,,0.00,0.0,meteohub,2013-03-30 13:42:00,
2013-03-30 06:49:00,51.1,49.1,30.05,SW,222,1.0,1.0,93,0.00,,,0.00,0.0,meteohub,2013-03-30 13:49:00,
2013-03-30 06:55:00,50.9,48.9,30.06,WSW,238,4.0,4.0,93,0.00,,,0.00,0.0,meteohub,2013-03-30 13:55:00,
2013-03-30 07:01:00,50.7,48.6,30.06,SW,229,0.0,1.0,92,0.00,,,0.00,0.0,meteohub,2013-03-30 14:01:00,
2013-03-30 07:07:00,50.7,48.6,30.06,SW,222,4.0,5.0,92,0.00,,,0.00,5.0,meteohub,2013-03-30 14:07:00,
2013-03-30 07:14:00,50.7,48.7,30.06,SW,219,3.0,5.0,93,0.00,,,0.00,14.0,meteohub,2013-03-30 14:14:00,
2013-03-30 07:20:00,50.5,48.6,30.06,SW,236,0.0,7.0,93,0.00,,,0.00,23.0,meteohub,2013-03-30 14:20:00,
2013-03-30 07:27:00,50.7,48.7,30.06,SW,236,1.0,7.0,93,0.00,,,0.00,26.0,meteohub,2013-03-30 14:27:00,
2013-03-30 07:32:00,50.7,48.7,30.06,SW,235,0.0,7.0,93,0.00,,,0.00,26.0,meteohub,2013-03-30 14:32:00,
2013-03-30 07:37:00,50.7,48.7,30.07,SW,235,0.0,6.0,93,0.00,,,0.00,30.0,meteohub,2013-03-30 14:37:00,
2013-03-30 07:42:00,50.7,48.7,30.07,SW,235,0.0,6.0,93,0.00,,,0.00,37.0,meteohub,2013-03-30 14:42:00,
2013-03-30 07:48:00,50.7,48.7,30.07,SW,235,0.0,6.0,93,0.00,,,0.00,39.0,meteohub,2013-03-30 14:48:00,
2013-03-30 07:54:00,50.9,48.9,30.07,SW,235,0.0,4.0,93,0.00,,,0.00,47.0,meteohub,2013-03-30 14:54:00,
2013-03-30 08:01:00,51.1,49.1,30.08,SW,235,0.0,4.0,93,0.00,,,0.00,56.0,meteohub,2013-03-30 15:01:00,
2013-03-30 08:07:00,51.3,49.3,30.08,SW,235,0.0,4.0,93,0.00,,,0.00,79.0,meteohub,2013-03-30 15:07:00,
2013-03-30 08:12:00,51.3,49.3,30.08,SW,235,0.0,4.0,93,0.00,,,0.00,79.0,meteohub,2013-03-30 15:12:00,
2013-03-30 08:17:00,51.4,49.5,30.08,SW,229,3.0,4.0,93,0.00,,,0.00,70.0,meteohub,2013-03-30 15:17:00,
2013-03-30 08:22:00,51.4,49.3,30.08,SW,229,1.0,2.0,92,0.00,,,0.00,65.0,meteohub,2013-03-30 15:22:00,
2013-03-30 08:28:00,51.6,49.5,30.08,West,275,1.0,2.0,92,0.00,,,0.00,77.0,meteohub,2013-03-30 15:28:00,
2013-03-30 08:34:00,51.8,49.6,30.08,West,275,0.0,5.0,92,0.00,,,0.00,79.0,meteohub,2013-03-30 15:34:00,
2013-03-30 08:40:00,52.0,49.6,30.08,West,275,0.0,5.0,92,0.00,,,0.00,83.0,meteohub,2013-03-30 15:40:00,
2013-03-30 08:46:00,52.2,49.8,30.08,West,275,0.0,1.0,92,0.00,,,0.00,111.0,meteohub,2013-03-30 15:46:00,
2013-03-30 08:52:00,52.3,50.0,30.08,West,275,0.0,1.0,92,0.00,,,0.00,123.0,meteohub,2013-03-30 15:52:00,
2013-03-30 08:57:00,52.3,49.8,30.08,SW,230,0.0,2.0,91,0.00,,,0.00,102.0,meteohub,2013-03-30 15:57:00,
2013-03-30 09:02:00,52.3,49.8,30.08,SW,230,0.0,2.0,91,0.00,,,0.00,104.0,meteohub,2013-03-30 16:02:00,
2013-03-30 09:07:00,52.5,50.0,30.08,SW,230,1.0,2.0,91,0.00,,,0.00,125.0,meteohub,2013-03-30 16:07:00,
2013-03-30 09:14:00,52.5,49.6,30.08,SW,230,0.0,2.0,90,0.00,,,0.00,118.0,meteohub,2013-03-30 16:14:00,
2013-03-30 09:20:00,52.7,49.8,30.08,SW,230,0.0,1.0,90,0.00,,,0.00,132.0,meteohub,2013-03-30 16:20:00,
2013-03-30 09:26:00,52.9,50.0,30.08,SW,230,0.0,1.0,90,0.00,,,0.00,176.0,meteohub,2013-03-30 16:26:00,
2013-03-30 09:32:00,53.2,50.4,30.08,SW,230,1.0,1.0,90,0.00,,,0.00,199.0,meteohub,2013-03-30 16:32:00,
2013-03-30 09:38:00,53.6,50.4,30.09,SW,230,0.0,2.0,89,0.00,,,0.00,211.0,meteohub,2013-03-30 16:38:00,
2013-03-30 09:44:00,54.0,50.7,30.08,SW,230,1.0,2.0,89,0.00,,,0.00,260.0,meteohub,2013-03-30 16:44:00,
2013-03-30 09:51:00,54.3,50.9,30.08,SW,222,1.0,2.0,88,0.00,,,0.00,290.0,meteohub,2013-03-30 16:51:00,
2013-03-30 09:57:00,54.7,50.9,30.08,SW,222,0.0,3.0,87,0.00,,,0.00,304.0,meteohub,2013-03-30 16:57:00,
2013-03-30 10:02:00,55.0,50.9,30.08,SW,222,0.0,3.0,86,0.00,,,0.00,274.0,meteohub,2013-03-30 17:02:00,
2013-03-30 10:07:00,55.4,50.9,30.08,SW,222,1.0,3.0,85,0.00,,,0.00,288.0,meteohub,2013-03-30 17:07:00,
2013-03-30 10:12:00,55.6,51.1,30.08,SW,222,0.0,2.0,85,0.00,,,0.00,309.0,meteohub,2013-03-30 17:12:00,
2013-03-30 10:18:00,56.1,51.4,30.08,ESE,114,4.0,4.0,84,0.00,,,0.00,225.0,meteohub,2013-03-30 17:18:00,
2013-03-30 10:25:00,56.7,51.6,30.08,ESE,113,0.0,2.0,83,0.00,,,0.00,265.0,meteohub,2013-03-30 17:25:00,
2013-03-30 10:31:00,57.0,52.0,30.08,ESE,113,0.0,4.0,83,0.00,,,0.00,244.0,meteohub,2013-03-30 17:31:00,
2013-03-30 10:37:00,57.4,52.3,30.08,ESE,113,0.0,2.0,83,0.00,,,0.00,318.0,meteohub,2013-03-30 17:37:00,
2013-03-30 10:42:00,57.9,52.5,30.08,ESE,113,2.0,2.0,82,0.00,,,0.00,318.0,meteohub,2013-03-30 17:42:00,
2013-03-30 10:47:00,58.1,52.7,30.09,ESE,114,2.0,4.0,82,0.00,,,0.00,461.0,meteohub,2013-03-30 17:47:00,
2013-03-30 10:52:00,58.3,52.5,30.09,ESE,114,0.0,4.0,81,0.00,,,0.00,329.0,meteohub,2013-03-30 17:52:00,
2013-03-30 10:57:00,58.3,52.5,30.08,SSW,198,0.0,5.0,81,0.00,,,0.00,367.0,meteohub,2013-03-30 17:57:00,
2013-03-30 11:02:00,58.3,52.2,30.09,SSW,201,2.0,5.0,80,0.00,,,0.00,162.0,meteohub,2013-03-30 18:02:00,
2013-03-30 11:08:00,58.1,52.0,30.09,SSW,211,2.0,5.0,80,0.00,,,0.00,118.0,meteohub,2013-03-30 18:08:00,
2013-03-30 11:14:00,58.1,52.3,30.09,West,259,1.0,5.0,81,0.00,,,0.00,179.0,meteohub,2013-03-30 18:14:00,
2013-03-30 11:21:00,57.7,52.7,30.09,WSW,243,0.0,7.0,83,0.00,,,0.00,302.0,meteohub,2013-03-30 18:21:00,
2013-03-30 11:27:00,57.7,52.7,30.09,SW,221,2.0,7.0,83,0.00,,,0.00,285.0,meteohub,2013-03-30 18:27:00,
2013-03-30 11:32:00,57.7,52.7,30.09,SW,230,0.0,8.0,83,0.00,,,0.00,185.0,meteohub,2013-03-30 18:32:00,
2013-03-30 11:37:00,57.7,52.3,30.09,SW,226,6.0,8.0,82,0.00,,,0.00,285.0,meteohub,2013-03-30 18:37:00,
2013-03-30 11:42:00,57.9,52.7,30.09,SW,223,5.0,8.0,83,0.00,,,0.00,582.0,meteohub,2013-03-30 18:42:00,
2013-03-30 11:47:00,58.5,53.1,30.09,SSW,207,2.0,8.0,82,0.00,,,0.00,221.0,meteohub,2013-03-30 18:47:00,
2013-03-30 11:52:00,58.3,52.5,30.09,SW,227,0.0,8.0,81,0.00,,,0.00,520.0,meteohub,2013-03-30 18:52:00,
2013-03-30 11:58:00,58.6,52.5,30.09,South,191,2.0,8.0,80,0.00,,,0.00,267.0,meteohub,2013-03-30 18:58:00,
2013-03-30 12:04:00,58.8,52.7,30.09,SW,219,2.0,9.0,80,0.00,,,0.00,241.0,meteohub,2013-03-30 19:04:00,
2013-03-30 12:11:00,58.8,52.7,30.09,SW,218,2.0,6.0,80,0.00,,,0.00,151.0,meteohub,2013-03-30 19:11:00,
2013-03-30 12:17:00,59.0,52.5,30.09,SW,218,0.0,6.0,79,0.00,,,0.00,216.0,meteohub,2013-03-30 19:17:00,
2013-03-30 12:22:00,59.2,53.4,30.09,SW,218,1.0,5.0,81,0.00,,,0.00,169.0,meteohub,2013-03-30 19:22:00,
2013-03-30 12:27:00,58.8,53.1,30.09,SW,215,2.0,5.0,81,0.00,,,0.00,239.0,meteohub,2013-03-30 19:27:00,
2013-03-30 12:32:00,58.8,54.0,30.09,SW,217,1.0,5.0,84,0.00,,,0.00,278.0,meteohub,2013-03-30 19:32:00,
2013-03-30 12:37:00,59.0,53.8,30.09,SW,216,0.0,6.0,83,0.00,,,0.00,230.0,meteohub,2013-03-30 19:37:00,
2013-03-30 12:42:00,59.2,54.0,30.09,SSW,211,2.0,6.0,83,0.00,,,0.00,258.0,meteohub,2013-03-30 19:42:00,
2013-03-30 12:47:00,59.4,54.5,30.09,South,183,1.0,5.0,84,0.00,,,0.00,223.0,meteohub,2013-03-30 19:47:00,
2013-03-30 12:52:00,59.0,53.2,30.09,South,187,0.0,5.0,81,0.00,,,0.00,137.0,meteohub,2013-03-30 19:52:00,
2013-03-30 12:58:00,58.8,53.4,30.09,South,187,1.0,5.0,82,0.00,,,0.00,153.0,meteohub,2013-03-30 19:58:00,
2013-03-30 13:04:00,58.8,53.4,30.08,South,189,0.0,5.0,82,0.00,,,0.00,113.0,meteohub,2013-03-30 20:04:00,
2013-03-30 13:10:00,58.6,53.4,30.09,South,189,0.0,5.0,83,0.00,,,0.00,285.0,meteohub,2013-03-30 20:10:00,
2013-03-30 13:17:00,58.8,54.3,30.08,South,188,1.0,5.0,85,0.00,,,0.00,404.0,meteohub,2013-03-30 20:17:00,
2013-03-30 13:22:00,59.4,54.5,30.07,South,186,0.0,4.0,84,0.00,,,0.00,308.0,meteohub,2013-03-30 20:22:00,
2013-03-30 13:27:00,59.5,54.3,30.07,South,185,0.0,4.0,83,0.00,,,0.00,515.0,meteohub,2013-03-30 20:27:00,
2013-03-30 13:32:00,59.5,53.8,30.07,South,171,4.0,4.0,81,0.00,,,0.00,329.0,meteohub,2013-03-30 20:32:00,
2013-03-30 13:37:00,59.5,53.4,30.07,South,169,0.0,2.0,80,0.00,,,0.00,373.0,meteohub,2013-03-30 20:37:00,
2013-03-30 13:42:00,60.1,53.6,30.07,SE,144,2.0,4.0,79,0.00,,,0.00,396.0,meteohub,2013-03-30 20:42:00,
2013-03-30 13:47:00,60.6,53.8,30.07,SE,144,0.0,4.0,78,0.00,,,0.00,401.0,meteohub,2013-03-30 20:47:00,
2013-03-30 13:52:00,61.0,53.8,30.07,SE,144,2.0,4.0,77,0.00,,,0.00,515.0,meteohub,2013-03-30 20:52:00,
2013-03-30 13:57:00,61.9,54.3,30.07,NE,36,4.0,4.0,76,0.00,,,0.00,1165.0,meteohub,2013-03-30 20:57:00,
2013-03-30 14:02:00,62.8,54.0,30.06,North,351,2.0,6.0,73,0.00,,,0.00,875.0,meteohub,2013-03-30 21:02:00,
2013-03-30 14:07:00,63.7,54.1,30.06,ENE,62,1.0,6.0,71,0.00,,,0.00,884.0,meteohub,2013-03-30 21:07:00,
2013-03-30 14:12:00,64.6,53.8,30.06,East,91,0.0,7.0,68,0.00,,,0.00,954.0,meteohub,2013-03-30 21:12:00,
2013-03-30 14:17:00,64.6,52.9,30.06,NE,37,2.0,7.0,66,0.00,,,0.00,436.0,meteohub,2013-03-30 21:17:00,
2013-03-30 14:23:00,65.7,54.3,30.05,NE,56,5.0,7.0,67,0.00,,,0.00,703.0,meteohub,2013-03-30 21:23:00,
2013-03-30 14:29:00,66.6,53.6,30.05,East,101,2.0,6.0,63,0.00,,,0.00,858.0,meteohub,2013-03-30 21:29:00,
2013-03-30 14:36:00,66.4,53.8,30.05,SSE,157,2.0,6.0,64,0.00,,,0.00,429.0,meteohub,2013-03-30 21:36:00,
2013-03-30 14:42:00,66.0,53.4,30.04,WSW,254,3.0,5.0,64,0.00,,,0.00,619.0,meteohub,2013-03-30 21:42:00,
2013-03-30 14:47:00,65.7,52.7,30.04,WSW,254,0.0,5.0,63,0.00,,,0.00,545.0,meteohub,2013-03-30 21:47:00,
2013-03-30 14:53:00,66.2,52.9,30.04,WSW,254,1.0,6.0,62,0.00,,,0.00,510.0,meteohub,2013-03-30 21:53:00,
2013-03-30 14:59:00,66.7,52.3,30.04,NNW,329,1.0,5.0,60,0.00,,,0.00,550.0,meteohub,2013-03-30 21:59:00,
2013-03-30 15:05:00,67.3,52.0,30.03,NE,37,0.0,5.0,58,0.00,,,0.00,471.0,meteohub,2013-03-30 22:05:00,
2013-03-30 15:11:00,68.0,50.7,30.02,ESE,104,2.0,7.0,54,0.00,,,0.00,471.0,meteohub,2013-03-30 22:11:00,
2013-03-30 15:17:00,68.5,50.2,30.02,ESE,121,3.0,7.0,52,0.00,,,0.00,954.0,meteohub,2013-03-30 22:17:00,
2013-03-30 15:22:00,68.4,50.0,30.01,NNE,12,4.0,7.0,52,0.00,,,0.00,714.0,meteohub,2013-03-30 22:22:00,
2013-03-30 15:28:00,68.7,49.3,30.01,NNW,327,2.0,7.0,50,0.00,,,0.00,895.0,meteohub,2013-03-30 22:28:00,
2013-03-30 15:34:00,69.1,51.3,30.01,East,84,3.0,6.0,53,0.00,,,0.00,780.0,meteohub,2013-03-30 22:34:00,
2013-03-30 15:41:00,69.4,52.2,30.01,East,101,4.0,6.0,54,0.00,,,0.00,752.0,meteohub,2013-03-30 22:41:00,
2013-03-30 15:47:00,68.5,53.2,30.02,ESE,121,8.0,8.0,58,0.00,,,0.00,714.0,meteohub,2013-03-30 22:47:00,
2013-03-30 15:52:00,66.2,52.9,30.03,SSW,201,12.0,18.0,62,0.00,,,0.00,689.0,meteohub,2013-03-30 22:52:00,
2013-03-30 15:57:00,64.2,52.2,30.04,SSW,202,11.0,18.0,65,0.00,,,0.00,504.0,meteohub,2013-03-30 22:57:00,
2013-03-30 16:02:00,63.1,52.0,30.04,SSW,196,2.0,19.0,67,0.00,,,0.00,311.0,meteohub,2013-03-30 23:02:00,
2013-03-30 16:08:00,61.9,51.3,30.03,WSW,246,6.0,19.0,68,0.00,,,0.00,211.0,meteohub,2013-03-30 23:08:00,
2013-03-30 16:14:00,61.2,50.9,30.04,SW,226,1.0,19.0,69,0.00,,,0.00,299.0,meteohub,2013-03-30 23:14:00,
2013-03-30 16:20:00,60.6,50.7,30.04,SSW,196,7.0,19.0,70,0.00,,,0.00,241.0,meteohub,2013-03-30 23:20:00,
2013-03-30 16:27:00,60.4,51.4,30.03,SE,128,1.0,19.0,72,0.00,,,0.00,250.0,meteohub,2013-03-30 23:27:00,
2013-03-30 16:32:00,60.3,50.9,30.03,South,190,1.0,14.0,71,0.00,,,0.00,176.0,meteohub,2013-03-30 23:32:00,
2013-03-30 16:37:00,59.9,50.9,30.03,WSW,237,1.0,14.0,72,0.00,,,0.00,153.0,meteohub,2013-03-30 23:37:00,
2013-03-30 16:42:00,59.5,50.5,30.03,SSW,196,0.0,7.0,72,0.00,,,0.00,151.0,meteohub,2013-03-30 23:42:00,
2013-03-30 16:47:00,59.5,50.9,30.03,SW,219,5.0,7.0,73,0.00,,,0.00,172.0,meteohub,2013-03-30 23:47:00,
2013-03-30 16:52:00,59.4,51.1,30.03,WSW,238,0.0,7.0,74,0.00,,,0.00,179.0,meteohub,2013-03-30 23:52:00,
2013-03-30 16:58:00,59.4,50.7,30.03,SW,228,2.0,7.0,73,0.00,,,0.00,183.0,meteohub,2013-03-30 23:58:00,
2013-03-30 17:04:00,59.4,51.1,30.03,West,268,1.0,6.0,74,0.00,,,0.00,162.0,meteohub,2013-03-31 00:04:00,
2013-03-30 17:11:00,59.0,51.1,30.03,North,349,0.0,7.0,75,0.00,,,0.00,148.0,meteohub,2013-03-31 00:11:00,
2013-03-30 17:17:00,59.5,51.6,30.02,North,350,1.0,7.0,75,0.00,,,0.00,135.0,meteohub,2013-03-31 00:17:00,
2013-03-30 17:22:00,59.7,51.4,30.02,NW,325,0.0,7.0,74,0.00,,,0.00,123.0,meteohub,2013-03-31 00:22:00,
2013-03-30 17:27:00,59.5,50.9,30.02,WNW,298,0.0,7.0,73,0.00,,,0.00,105.0,meteohub,2013-03-31 00:27:00,
2013-03-30 17:32:00,59.4,51.1,30.02,WNW,298,0.0,4.0,74,0.00,,,0.00,95.0,meteohub,2013-03-31 00:32:00,
2013-03-30 17:38:00,59.2,51.3,30.02,WNW,298,0.0,4.0,75,0.00,,,0.00,97.0,meteohub,2013-03-31 00:38:00,
2013-03-30 17:44:00,59.2,51.3,30.03,West,278,1.0,3.0,75,0.00,,,0.00,97.0,meteohub,2013-03-31 00:44:00,
2013-03-30 17:50:00,59.0,51.1,30.03,WSW,254,0.0,4.0,75,0.00,,,0.00,90.0,meteohub,2013-03-31 00:50:00,
2013-03-30 17:56:00,59.0,51.1,30.03,WSW,254,0.0,4.0,75,0.00,,,0.00,86.0,meteohub,2013-03-31 00:56:00,
2013-03-30 18:02:00,59.2,51.3,30.03,WSW,254,0.0,4.0,75,0.00,,,0.00,76.0,meteohub,2013-03-31 01:02:00,
2013-03-30 18:07:00,59.2,51.6,30.03,WSW,254,0.0,4.0,76,0.00,,,0.00,70.0,meteohub,2013-03-31 01:07:00,
2013-03-30 18:13:00,59.4,51.8,30.04,WSW,254,0.0,2.0,76,0.00,,,0.00,67.0,meteohub,2013-03-31 01:13:00,
2013-03-30 18:19:00,59.2,51.6,30.04,NNW,336,0.0,2.0,76,0.00,,,0.00,70.0,meteohub,2013-03-31 01:19:00,
2013-03-30 18:25:00,59.2,52.0,30.04,North,5,0.0,5.0,77,0.00,,,0.00,65.0,meteohub,2013-03-31 01:25:00,
2013-03-30 18:32:00,59.4,51.8,30.04,NNE,12,0.0,5.0,76,0.00,,,0.00,53.0,meteohub,2013-03-31 01:32:00,
2013-03-30 18:37:00,59.4,51.8,30.04,SSW,200,3.0,4.0,76,0.00,,,0.00,46.0,meteohub,2013-03-31 01:37:00,
2013-03-30 18:42:00,58.8,51.3,30.03,South,189,0.0,4.0,76,0.00,,,0.00,39.0,meteohub,2013-03-31 01:42:00,
2013-03-30 18:47:00,58.8,51.6,30.04,South,188,0.0,6.0,77,0.00,,,0.00,30.0,meteohub,2013-03-31 01:47:00,
2013-03-30 18:52:00,58.8,52.0,30.03,South,187,0.0,6.0,78,0.00,,,0.00,21.0,meteohub,2013-03-31 01:52:00,
2013-03-30 18:57:00,58.8,51.6,30.04,South,188,1.0,3.0,77,0.00,,,0.00,14.0,meteohub,2013-03-31 01:57:00,
2013-03-30 19:02:00,58.6,52.2,30.03,SSW,197,1.0,3.0,79,0.00,,,0.00,12.0,meteohub,2013-03-31 02:02:00,
2013-03-30 19:07:00,58.3,52.2,30.02,West,269,0.0,3.0,80,0.00,,,0.00,9.0,meteohub,2013-03-31 02:07:00,
2013-03-30 19:12:00,57.7,52.0,30.04,West,267,0.0,2.0,81,0.00,,,0.00,0.0,meteohub,2013-03-31 02:12:00,
2013-03-30 19:18:00,57.6,51.8,30.04,West,267,0.0,2.0,81,0.00,,,0.00,0.0,meteohub,2013-03-31 02:18:00,
2013-03-30 19:24:00,57.4,52.3,30.04,West,267,0.0,2.0,83,0.00,,,0.00,0.0,meteohub,2013-03-31 02:24:00,
2013-03-30 19:30:00,57.0,52.5,30.04,West,267,0.0,0.0,85,0.00,,,0.00,0.0,meteohub,2013-03-31 02:30:00,
2013-03-30 19:37:00,57.0,52.5,30.03,West,267,0.0,0.0,85,0.00,,,0.00,0.0,meteohub,2013-03-31 02:37:00,
2013-03-30 19:42:00,56.8,53.1,30.03,West,267,0.0,0.0,87,0.00,,,0.00,0.0,meteohub,2013-03-31 02:42:00,
2013-03-30 19:47:00,56.7,53.1,30.04,West,267,0.0,0.0,88,0.00,,,0.01,0.0,meteohub,2013-03-31 02:47:00,
2013-03-30 19:52:00,56.5,53.2,30.04,West,267,0.0,0.0,89,0.01,,,0.01,0.0,meteohub,2013-03-31 02:52:00,
2013-03-30 19:57:00,55.9,53.1,30.04,West,267,0.0,0.0,90,0.01,,,0.01,0.0,meteohub,2013-03-31 02:57:00,
2013-03-30 20:02:00,55.6,53.1,30.04,West,267,0.0,0.0,91,0.01,,,0.01,0.0,meteohub,2013-03-31 03:02:00,
2013-03-30 20:08:00,55.6,53.2,30.04,West,267,0.0,0.0,92,0.01,,,0.01,0.0,meteohub,2013-03-31 03:08:00,
2013-03-30 20:14:00,55.6,53.2,30.05,West,267,0.0,0.0,92,0.01,,,0.01,0.0,meteohub,2013-03-31 03:14:00,
2013-03-30 20:20:00,55.6,53.6,30.04,West,267,0.0,0.0,93,0.01,,,0.01,0.0,meteohub,2013-03-31 03:20:00,
2013-03-30 20:27:00,55.6,53.6,30.04,West,267,0.0,0.0,93,0.01,,,0.01,0.0,meteohub,2013-03-31 03:27:00,
2013-03-30 20:32:00,55.4,53.4,30.05,West,267,0.0,0.0,93,0.01,,,0.01,0.0,meteohub,2013-03-31 03:32:00,
2013-03-30 20:37:00,55.2,53.2,30.05,West,263,0.0,0.0,93,0.01,,,0.01,0.0,meteohub,2013-03-31 03:37:00,
2013-03-30 20:42:00,55.2,53.2,30.04,West,271,0.0,0.0,93,0.01,,,0.01,0.0,meteohub,2013-03-31 03:42:00,
2013-03-30 20:47:00,55.0,53.1,30.04,West,273,0.0,0.0,93,0.01,,,0.01,0.0,meteohub,2013-03-31 03:47:00,
2013-03-30 20:52:00,55.2,53.2,30.04,West,272,0.0,0.0,93,0.00,,,0.01,0.0,meteohub,2013-03-31 03:52:00,
2013-03-30 20:57:00,55.2,53.2,30.05,West,272,0.0,0.0,93,0.00,,,0.01,0.0,meteohub,2013-03-31 03:57:00,
2013-03-30 21:00:00,55.2,53.2,30.05,West,272,0.0,0.0,93,0.00,,,0.01,0.0,meteohub,2013-03-31 04:00:00,
2013-03-30 21:02:00,55.2,53.2,30.05,West,272,0.0,0.0,93,0.00,,,0.01,0.0,meteohub,2013-03-31 04:02:00,
2013-03-30 21:04:00,55.2,53.6,30.06,West,272,0.0,0.0,94,0.00,,,0.01,0.0,meteohub,2013-03-31 04:04:00,
2013-03-30 21:07:00,55.0,53.4,30.06,West,271,0.0,0.0,94,0.00,,,0.01,0.0,meteohub,2013-03-31 04:07:00,
2013-03-30 21:13:00,55.0,53.4,30.05,West,273,0.0,0.0,94,0.00,,,0.01,0.0,meteohub,2013-03-31 04:13:00,
2013-03-30 21:19:00,55.2,53.6,30.04,West,273,0.0,0.0,94,0.00,,,0.01,0.0,meteohub,2013-03-31 04:19:00,
2013-03-30 21:25:00,55.0,53.4,30.05,West,271,0.0,0.0,94,0.00,,,0.01,0.0,meteohub,2013-03-31 04:25:00,
2013-03-30 21:32:00,55.0,53.4,30.04,West,275,0.0,0.0,94,0.01,,,0.02,0.0,meteohub,2013-03-31 04:32:00,
2013-03-30 21:37:00,55.0,53.4,30.04,West,274,0.0,0.0,94,0.01,,,0.02,0.0,meteohub,2013-03-31 04:37:00,
2013-03-30 21:44:00,54.9,53.2,30.04,West,273,0.0,0.0,94,0.01,,,0.02,0.0,meteohub,2013-03-31 04:44:00,
2013-03-30 21:50:00,54.9,53.2,30.06,WSW,238,0.0,0.0,94,0.01,,,0.02,0.0,meteohub,2013-03-31 04:50:00,
2013-03-30 21:56:00,54.9,53.4,30.06,WSW,238,0.0,0.0,95,0.01,,,0.02,0.0,meteohub,2013-03-31 04:56:00,
2013-03-30 22:02:00,54.9,53.4,30.05,West,277,0.0,0.0,95,0.01,,,0.02,0.0,meteohub,2013-03-31 05:02:00,
2013-03-30 22:07:00,54.9,53.4,30.05,NNE,22,0.0,0.0,95,0.01,,,0.02,0.0,meteohub,2013-03-31 05:07:00,
2013-03-30 22:12:00,54.9,53.4,30.07,NW,315,0.0,0.0,95,0.01,,,0.02,0.0,meteohub,2013-03-31 05:12:00,
2013-03-30 22:17:00,54.9,53.4,30.05,NNE,13,0.0,0.0,95,0.01,,,0.02,0.0,meteohub,2013-03-31 05:17:00,
2013-03-30 22:22:00,54.9,53.4,30.04,NNE,13,0.0,0.0,95,0.01,,,0.02,0.0,meteohub,2013-03-31 05:22:00,
2013-03-30 22:27:00,54.9,53.4,30.03,NNE,13,0.0,0.0,95,0.01,,,0.03,0.0,meteohub,2013-03-31 05:27:00,
2013-03-30 22:33:00,54.9,53.4,30.03,North,11,0.0,0.0,95,0.01,,,0.03,0.0,meteohub,2013-03-31 05:33:00,
2013-03-30 22:40:00,54.5,53.1,30.04,SW,215,0.0,0.0,95,0.01,,,0.03,0.0,meteohub,2013-03-31 05:40:00,
2013-03-30 22:46:00,54.7,53.2,30.04,SW,215,0.0,0.0,95,0.01,,,0.03,0.0,meteohub,2013-03-31 05:46:00,
2013-03-30 22:52:00,54.7,53.6,30.04,SW,215,0.0,0.0,96,0.01,,,0.03,0.0,meteohub,2013-03-31 05:52:00,
2013-03-30 22:57:00,54.7,53.2,30.04,SW,215,0.0,0.0,95,0.01,,,0.04,0.0,meteohub,2013-03-31 05:57:00,
2013-03-30 23:02:00,54.7,53.6,30.04,SW,215,0.0,0.0,96,0.02,,,0.04,0.0,meteohub,2013-03-31 06:02:00,
2013-03-30 23:07:00,54.7,53.6,30.04,SW,215,0.0,0.0,96,0.02,,,0.04,0.0,meteohub,2013-03-31 06:07:00,
2013-03-30 23:12:00,54.7,53.6,30.04,SW,215,0.0,0.0,96,0.02,,,0.04,0.0,meteohub,2013-03-31 06:12:00,
2013-03-30 23:17:00,54.7,53.6,30.04,SW,215,0.0,0.0,96,0.02,,,0.04,0.0,meteohub,2013-03-31 06:17:00,
2013-03-30 23:23:00,54.9,53.8,30.04,SW,215,0.0,0.0,96,0.02,,,0.04,0.0,meteohub,2013-03-31 06:23:00,
2013-03-30 23:30:00,54.9,53.8,30.04,SW,215,0.0,0.0,96,0.02,,,0.04,0.0,meteohub,2013-03-31 06:30:00,
2013-03-30 23:36:00,54.9,53.8,30.04,SW,215,0.0,0.0,96,0.02,,,0.05,0.0,meteohub,2013-03-31 06:36:00,
2013-03-30 23:42:00,54.7,53.6,30.04,SW,215,0.0,0.0,96,0.02,,,0.05,0.0,meteohub,2013-03-31 06:42:00,
2013-03-30 23:47:00,54.7,53.6,30.04,SW,215,0.0,0.0,96,0.02,,,0.05,0.0,meteohub,2013-03-31 06:47:00,
2013-03-30 23:52:00,54.9,53.8,30.04,SW,215,0.0,0.0,96,0.02,,,0.05,0.0,meteohub,2013-03-31 06:52:00,
2013-03-30 23:57:00,54.9,53.8,30.05,SW,215,0.0,0.0,96,0.02,,,0.05,0.0,meteohub,2013-03-31 06:57:00,